sensor_id;sensor_type;location;lat;lon;timestamp;pressure;altitude;pressure_sealevel;temperature;humidity
4143;BME280;2085;51.052;6.958;2022-08-25T00:01:08;101304.16;;;23.85;45.08
4143;BME280;2085;51.052;6.958;2022-08-25T00:03:35;101298.38;;;23.80;44.64
4143;BME280;2085;51.052;6.958;2022-08-25T00:06:03;101303.34;;;23.75;45.03
4143;BME280;2085;51.052;6.958;2022-08-25T00:08:31;101311.69;;;23.72;45.10
4143;BME280;2085;51.052;6.958;2022-08-25T00:10:59;101299.69;;;23.66;44.76
4143;BME280;2085;51.052;6.958;2022-08-25T00:13:26;101303.25;;;23.57;45.09
4143;BME280;2085;51.052;6.958;2022-08-25T00:15:52;101294.94;;;23.50;44.95
4143;BME280;2085;51.052;6.958;2022-08-25T00:18:19;101296.47;;;23.43;44.89
4143;BME280;2085;51.052;6.958;2022-08-25T00:20:46;101302.72;;;23.34;45.42
4143;BME280;2085;51.052;6.958;2022-08-25T00:23:12;101307.13;;;23.26;44.94
4143;BME280;2085;51.052;6.958;2022-08-25T00:25:40;101302.59;;;23.17;45.12
4143;BME280;2085;51.052;6.958;2022-08-25T00:28:07;101305.00;;;23.10;45.55
4143;BME280;2085;51.052;6.958;2022-08-25T00:30:34;101295.28;;;22.99;45.57
4143;BME280;2085;51.052;6.958;2022-08-25T00:33:01;101305.03;;;22.91;45.80
4143;BME280;2085;51.052;6.958;2022-08-25T00:35:28;101300.34;;;22.83;45.68
4143;BME280;2085;51.052;6.958;2022-08-25T00:37:55;101308.00;;;22.78;45.42
4143;BME280;2085;51.052;6.958;2022-08-25T00:40:24;101307.56;;;22.73;45.46
4143;BME280;2085;51.052;6.958;2022-08-25T00:42:52;101309.66;;;22.69;45.51
4143;BME280;2085;51.052;6.958;2022-08-25T00:45:21;101315.41;;;22.65;45.64
4143;BME280;2085;51.052;6.958;2022-08-25T00:47:47;101315.84;;;22.60;45.69
4143;BME280;2085;51.052;6.958;2022-08-25T00:50:15;101308.06;;;22.57;45.98
4143;BME280;2085;51.052;6.958;2022-08-25T00:52:45;101316.41;;;22.54;45.59
4143;BME280;2085;51.052;6.958;2022-08-25T00:55:16;101306.09;;;22.50;45.74
4143;BME280;2085;51.052;6.958;2022-08-25T00:57:47;101307.50;;;22.44;45.82
4143;BME280;2085;51.052;6.958;2022-08-25T01:00:24;101311.44;;;22.40;46.17
4143;BME280;2085;51.052;6.958;2022-08-25T01:02:51;101311.00;;;22.35;46.05
4143;BME280;2085;51.052;6.958;2022-08-25T01:05:18;101306.06;;;22.31;46.33
4143;BME280;2085;51.052;6.958;2022-08-25T01:07:46;101311.81;;;22.26;45.97
4143;BME280;2085;51.052;6.958;2022-08-25T01:10:15;101307.84;;;22.20;46.29
4143;BME280;2085;51.052;6.958;2022-08-25T01:12:43;101303.75;;;22.16;45.97
4143;BME280;2085;51.052;6.958;2022-08-25T01:15:12;101303.47;;;22.10;46.09
4143;BME280;2085;51.052;6.958;2022-08-25T01:17:47;101298.50;;;22.05;46.39
4143;BME280;2085;51.052;6.958;2022-08-25T01:20:14;101304.28;;;22.01;46.22
4143;BME280;2085;51.052;6.958;2022-08-25T01:22:43;101308.34;;;21.95;46.46
4143;BME280;2085;51.052;6.958;2022-08-25T01:25:20;101308.72;;;21.91;46.66
4143;BME280;2085;51.052;6.958;2022-08-25T01:27:48;101309.00;;;21.88;46.31
4143;BME280;2085;51.052;6.958;2022-08-25T01:30:15;101310.09;;;21.85;46.34
4143;BME280;2085;51.052;6.958;2022-08-25T01:32:42;101305.88;;;21.83;46.54
4143;BME280;2085;51.052;6.958;2022-08-25T01:35:08;101308.69;;;21.81;46.29
4143;BME280;2085;51.052;6.958;2022-08-25T01:37:35;101309.81;;;21.78;46.48
4143;BME280;2085;51.052;6.958;2022-08-25T01:40:04;101312.72;;;21.75;46.52
4143;BME280;2085;51.052;6.958;2022-08-25T01:42:41;101314.84;;;21.72;46.51
4143;BME280;2085;51.052;6.958;2022-08-25T01:45:08;101308.91;;;21.68;46.38
4143;BME280;2085;51.052;6.958;2022-08-25T01:47:36;101307.47;;;21.64;46.50
4143;BME280;2085;51.052;6.958;2022-08-25T01:50:03;101306.91;;;21.61;46.83
4143;BME280;2085;51.052;6.958;2022-08-25T01:52:33;101305.47;;;21.57;46.94
4143;BME280;2085;51.052;6.958;2022-08-25T01:55:04;101301.50;;;21.51;46.93
4143;BME280;2085;51.052;6.958;2022-08-25T01:57:31;101307.38;;;21.45;46.92
4143;BME280;2085;51.052;6.958;2022-08-25T01:59:58;101310.72;;;21.38;46.83
4143;BME280;2085;51.052;6.958;2022-08-25T02:02:26;101307.00;;;21.29;46.90
4143;BME280;2085;51.052;6.958;2022-08-25T02:04:52;101310.19;;;21.23;47.21
4143;BME280;2085;51.052;6.958;2022-08-25T02:07:19;101312.41;;;21.18;47.48
4143;BME280;2085;51.052;6.958;2022-08-25T02:09:46;101315.59;;;21.12;47.47
4143;BME280;2085;51.052;6.958;2022-08-25T02:12:13;101311.72;;;21.05;47.56
4143;BME280;2085;51.052;6.958;2022-08-25T02:14:40;101310.28;;;21.01;47.57
4143;BME280;2085;51.052;6.958;2022-08-25T02:17:07;101314.88;;;20.99;47.60
4143;BME280;2085;51.052;6.958;2022-08-25T02:19:34;101311.50;;;20.97;47.53
4143;BME280;2085;51.052;6.958;2022-08-25T02:22:01;101311.78;;;20.93;47.31
4143;BME280;2085;51.052;6.958;2022-08-25T02:24:27;101315.44;;;20.92;47.43
4143;BME280;2085;51.052;6.958;2022-08-25T02:26:54;101316.38;;;20.91;47.69
4143;BME280;2085;51.052;6.958;2022-08-25T02:29:23;101331.72;;;20.89;47.54
4143;BME280;2085;51.052;6.958;2022-08-25T02:31:50;101320.41;;;20.86;47.52
4143;BME280;2085;51.052;6.958;2022-08-25T02:34:17;101319.94;;;20.81;47.70
4143;BME280;2085;51.052;6.958;2022-08-25T02:36:43;101314.28;;;20.74;47.87
4143;BME280;2085;51.052;6.958;2022-08-25T02:39:11;101312.94;;;20.69;47.89
4143;BME280;2085;51.052;6.958;2022-08-25T02:41:38;101318.78;;;20.63;47.79
4143;BME280;2085;51.052;6.958;2022-08-25T02:44:05;101315.78;;;20.56;47.65
4143;BME280;2085;51.052;6.958;2022-08-25T02:46:35;101314.34;;;20.52;47.86
4143;BME280;2085;51.052;6.958;2022-08-25T02:49:02;101310.94;;;20.50;48.02
4143;BME280;2085;51.052;6.958;2022-08-25T02:51:28;101306.13;;;20.44;47.81
4143;BME280;2085;51.052;6.958;2022-08-25T02:53:56;101314.38;;;20.41;47.79
4143;BME280;2085;51.052;6.958;2022-08-25T02:56:23;101305.63;;;20.39;48.02
4143;BME280;2085;51.052;6.958;2022-08-25T02:58:50;101302.47;;;20.34;47.99
4143;BME280;2085;51.052;6.958;2022-08-25T03:01:17;101301.88;;;20.30;48.28
4143;BME280;2085;51.052;6.958;2022-08-25T03:03:45;101289.69;;;20.26;48.09
4143;BME280;2085;51.052;6.958;2022-08-25T03:06:16;101286.31;;;20.24;48.29
4143;BME280;2085;51.052;6.958;2022-08-25T03:08:45;101284.00;;;20.20;48.48
4143;BME280;2085;51.052;6.958;2022-08-25T03:11:11;101280.00;;;20.14;48.31
4143;BME280;2085;51.052;6.958;2022-08-25T03:13:38;101277.94;;;20.07;48.29
4143;BME280;2085;51.052;6.958;2022-08-25T03:16:06;101279.41;;;19.99;48.70
4143;BME280;2085;51.052;6.958;2022-08-25T03:18:33;101277.47;;;19.90;48.78
4143;BME280;2085;51.052;6.958;2022-08-25T03:21:02;101275.41;;;19.83;48.94
4143;BME280;2085;51.052;6.958;2022-08-25T03:23:29;101277.75;;;19.76;48.84
4143;BME280;2085;51.052;6.958;2022-08-25T03:25:55;101277.97;;;19.73;48.90
4143;BME280;2085;51.052;6.958;2022-08-25T03:28:39;101269.34;;;19.70;49.10
4143;BME280;2085;51.052;6.958;2022-08-25T03:31:07;101267.91;;;19.66;49.07
4143;BME280;2085;51.052;6.958;2022-08-25T03:33:34;101272.38;;;19.65;49.24
4143;BME280;2085;51.052;6.958;2022-08-25T03:36:04;101267.03;;;19.65;49.39
4143;BME280;2085;51.052;6.958;2022-08-25T03:38:31;101270.31;;;19.69;49.41
4143;BME280;2085;51.052;6.958;2022-08-25T03:40:57;101268.38;;;19.71;49.18
4143;BME280;2085;51.052;6.958;2022-08-25T03:43:24;101269.00;;;19.74;49.23
4143;BME280;2085;51.052;6.958;2022-08-25T03:45:50;101269.72;;;19.76;49.13
4143;BME280;2085;51.052;6.958;2022-08-25T03:48:17;101265.25;;;19.77;48.94
4143;BME280;2085;51.052;6.958;2022-08-25T03:50:46;101269.94;;;19.73;49.06
4143;BME280;2085;51.052;6.958;2022-08-25T03:53:15;101273.63;;;19.72;49.13
4143;BME280;2085;51.052;6.958;2022-08-25T03:55:41;101273.47;;;19.74;49.28
4143;BME280;2085;51.052;6.958;2022-08-25T03:58:08;101276.03;;;19.75;49.33
4143;BME280;2085;51.052;6.958;2022-08-25T04:00:35;101259.16;;;19.75;49.39
4143;BME280;2085;51.052;6.958;2022-08-25T04:03:02;101260.72;;;19.77;49.19
4143;BME280;2085;51.052;6.958;2022-08-25T04:05:28;101252.59;;;19.79;49.16
4143;BME280;2085;51.052;6.958;2022-08-25T04:07:55;101246.53;;;19.77;49.02
4143;BME280;2085;51.052;6.958;2022-08-25T04:10:23;101237.88;;;19.73;49.12
4143;BME280;2085;51.052;6.958;2022-08-25T04:12:49;101242.03;;;19.66;49.18
4143;BME280;2085;51.052;6.958;2022-08-25T04:15:16;101230.13;;;19.59;49.51
4143;BME280;2085;51.052;6.958;2022-08-25T04:17:43;101238.50;;;19.54;49.33
4143;BME280;2085;51.052;6.958;2022-08-25T04:20:10;101233.41;;;19.51;49.40
4143;BME280;2085;51.052;6.958;2022-08-25T04:22:37;101235.47;;;19.48;49.45
4143;BME280;2085;51.052;6.958;2022-08-25T04:25:05;101235.59;;;19.46;49.82
4143;BME280;2085;51.052;6.958;2022-08-25T04:27:35;101237.31;;;19.47;49.67
4143;BME280;2085;51.052;6.958;2022-08-25T04:30:03;101239.00;;;19.48;49.50
4143;BME280;2085;51.052;6.958;2022-08-25T04:32:30;101235.38;;;19.49;49.46
4143;BME280;2085;51.052;6.958;2022-08-25T04:34:57;101244.09;;;19.51;49.66
4143;BME280;2085;51.052;6.958;2022-08-25T04:37:24;101239.59;;;19.52;49.77
4143;BME280;2085;51.052;6.958;2022-08-25T04:39:50;101242.28;;;19.52;49.81
4143;BME280;2085;51.052;6.958;2022-08-25T04:42:17;101244.94;;;19.52;49.59
4143;BME280;2085;51.052;6.958;2022-08-25T04:44:45;101235.13;;;19.52;49.49
4143;BME280;2085;51.052;6.958;2022-08-25T04:47:11;101243.03;;;19.54;49.74
4143;BME280;2085;51.052;6.958;2022-08-25T04:49:38;101245.53;;;19.55;49.91
4143;BME280;2085;51.052;6.958;2022-08-25T04:52:05;101248.09;;;19.57;49.53
4143;BME280;2085;51.052;6.958;2022-08-25T04:54:32;101248.09;;;19.57;49.83
4143;BME280;2085;51.052;6.958;2022-08-25T04:56:58;101241.81;;;19.58;49.88
4143;BME280;2085;51.052;6.958;2022-08-25T04:59:25;101242.50;;;19.60;49.69
4143;BME280;2085;51.052;6.958;2022-08-25T05:01:54;101236.94;;;19.63;49.92
4143;BME280;2085;51.052;6.958;2022-08-25T05:04:21;101241.78;;;19.69;49.66
4143;BME280;2085;51.052;6.958;2022-08-25T05:06:48;101233.19;;;19.77;49.84
4143;BME280;2085;51.052;6.958;2022-08-25T05:09:15;101231.81;;;19.82;49.58
4143;BME280;2085;51.052;6.958;2022-08-25T05:11:42;101228.78;;;19.87;49.80
4143;BME280;2085;51.052;6.958;2022-08-25T05:14:08;101230.22;;;19.91;49.66
4143;BME280;2085;51.052;6.958;2022-08-25T05:16:37;101233.53;;;19.94;49.68
4143;BME280;2085;51.052;6.958;2022-08-25T05:19:05;101240.47;;;20.29;49.50
4143;BME280;2085;51.052;6.958;2022-08-25T05:21:33;101236.09;;;20.91;49.30
4143;BME280;2085;51.052;6.958;2022-08-25T05:24:00;101234.69;;;21.59;48.27
4143;BME280;2085;51.052;6.958;2022-08-25T05:26:28;101237.88;;;22.23;47.25
4143;BME280;2085;51.052;6.958;2022-08-25T05:28:57;101230.16;;;22.78;46.77
4143;BME280;2085;51.052;6.958;2022-08-25T05:31:26;101228.91;;;23.29;46.20
4143;BME280;2085;51.052;6.958;2022-08-25T05:33:53;101217.75;;;23.70;45.79
4143;BME280;2085;51.052;6.958;2022-08-25T05:36:24;101221.22;;;24.08;45.32
4143;BME280;2085;51.052;6.958;2022-08-25T05:38:52;101220.03;;;24.37;45.48
4143;BME280;2085;51.052;6.958;2022-08-25T05:41:20;101219.97;;;24.65;44.90
4143;BME280;2085;51.052;6.958;2022-08-25T05:43:48;101215.19;;;24.94;44.84
4143;BME280;2085;51.052;6.958;2022-08-25T05:46:16;101204.59;;;25.26;44.89
4143;BME280;2085;51.052;6.958;2022-08-25T05:48:42;101210.06;;;25.60;44.68
4143;BME280;2085;51.052;6.958;2022-08-25T05:51:10;101208.63;;;25.90;44.00
4143;BME280;2085;51.052;6.958;2022-08-25T05:53:40;101210.06;;;26.18;43.93
4143;BME280;2085;51.052;6.958;2022-08-25T05:56:07;101217.06;;;26.45;43.89
4143;BME280;2085;51.052;6.958;2022-08-25T05:58:35;101213.53;;;26.69;43.48
4143;BME280;2085;51.052;6.958;2022-08-25T06:01:02;101206.47;;;26.92;43.50
4143;BME280;2085;51.052;6.958;2022-08-25T06:03:42;101200.19;;;27.08;43.82
4143;BME280;2085;51.052;6.958;2022-08-25T06:06:09;101201.50;;;27.20;43.75
4143;BME280;2085;51.052;6.958;2022-08-25T06:08:37;101201.63;;;27.35;43.42
4143;BME280;2085;51.052;6.958;2022-08-25T06:11:04;101197.41;;;27.40;43.62
4143;BME280;2085;51.052;6.958;2022-08-25T06:13:31;101201.44;;;27.44;43.38
4143;BME280;2085;51.052;6.958;2022-08-25T06:15:58;101207.22;;;27.41;43.58
4143;BME280;2085;51.052;6.958;2022-08-25T06:18:25;101211.81;;;27.17;44.65
4143;BME280;2085;51.052;6.958;2022-08-25T06:20:52;101213.53;;;26.77;45.49
4143;BME280;2085;51.052;6.958;2022-08-25T06:23:19;101219.06;;;26.35;45.90
4143;BME280;2085;51.052;6.958;2022-08-25T06:25:50;101219.44;;;25.98;46.75
4143;BME280;2085;51.052;6.958;2022-08-25T06:28:17;101220.72;;;25.70;47.22
4143;BME280;2085;51.052;6.958;2022-08-25T06:30:44;101221.25;;;25.48;47.44
4143;BME280;2085;51.052;6.958;2022-08-25T06:33:11;101219.81;;;25.36;47.57
4143;BME280;2085;51.052;6.958;2022-08-25T06:35:40;101219.78;;;25.27;47.38
4143;BME280;2085;51.052;6.958;2022-08-25T06:38:07;101225.13;;;25.19;47.57
4143;BME280;2085;51.052;6.958;2022-08-25T06:40:34;101217.84;;;25.12;47.09
4143;BME280;2085;51.052;6.958;2022-08-25T06:43:02;101223.72;;;25.07;47.62
4143;BME280;2085;51.052;6.958;2022-08-25T06:45:33;101219.31;;;25.06;47.60
4143;BME280;2085;51.052;6.958;2022-08-25T06:48:00;101227.41;;;25.06;47.58
4143;BME280;2085;51.052;6.958;2022-08-25T06:50:26;101225.69;;;25.05;47.08
4143;BME280;2085;51.052;6.958;2022-08-25T06:52:53;101235.81;;;25.03;nan
4143;BME280;2085;51.052;6.958;2022-08-25T06:55:19;101238.31;;;25.05;47.42
4143;BME280;2085;51.052;6.958;2022-08-25T06:57:46;101237.47;;;25.04;47.07
4143;BME280;2085;51.052;6.958;2022-08-25T07:00:14;101233.59;;;24.99;47.55
4143;BME280;2085;51.052;6.958;2022-08-25T07:02:41;101244.50;;;24.97;47.15
4143;BME280;2085;51.052;6.958;2022-08-25T07:05:08;101239.78;;;24.99;47.59
4143;BME280;2085;51.052;6.958;2022-08-25T07:07:36;101234.09;;;25.02;47.51
4143;BME280;2085;51.052;6.958;2022-08-25T07:10:03;101239.88;;;25.07;47.45
4143;BME280;2085;51.052;6.958;2022-08-25T07:12:30;101224.91;;;25.13;47.39
4143;BME280;2085;51.052;6.958;2022-08-25T07:14:56;101216.34;;;25.17;47.52
4143;BME280;2085;51.052;6.958;2022-08-25T07:17:24;101213.16;;;25.22;47.46
4143;BME280;2085;51.052;6.958;2022-08-25T07:19:51;101213.41;;;25.28;47.07
4143;BME280;2085;51.052;6.958;2022-08-25T07:22:18;101219.00;;;25.35;46.98
4143;BME280;2085;51.052;6.958;2022-08-25T07:24:44;101226.28;;;25.43;47.13
4143;BME280;2085;51.052;6.958;2022-08-25T07:27:11;101224.63;;;25.50;46.90
4143;BME280;2085;51.052;6.958;2022-08-25T07:29:37;101218.78;;;25.54;46.99
4143;BME280;2085;51.052;6.958;2022-08-25T07:32:04;101220.69;;;25.62;47.05
4143;BME280;2085;51.052;6.958;2022-08-25T07:34:33;101218.03;;;25.70;47.00
4143;BME280;2085;51.052;6.958;2022-08-25T07:37:18;101217.72;;;25.81;46.56
4143;BME280;2085;51.052;6.958;2022-08-25T07:39:45;101227.53;;;25.90;46.90
4143;BME280;2085;51.052;6.958;2022-08-25T07:42:12;101225.69;;;25.99;46.91
4143;BME280;2085;51.052;6.958;2022-08-25T07:44:38;101224.91;;;26.06;46.32
4143;BME280;2085;51.052;6.958;2022-08-25T07:47:05;101223.06;;;26.15;46.53
4143;BME280;2085;51.052;6.958;2022-08-25T07:49:33;101226.25;;;26.18;46.42
4143;BME280;2085;51.052;6.958;2022-08-25T07:51:59;101225.97;;;26.22;46.57
4143;BME280;2085;51.052;6.958;2022-08-25T07:54:26;101226.31;;;26.27;46.45
4143;BME280;2085;51.052;6.958;2022-08-25T07:56:53;101222.97;;;26.33;46.53
4143;BME280;2085;51.052;6.958;2022-08-25T07:59:19;101223.31;;;26.38;46.21
4143;BME280;2085;51.052;6.958;2022-08-25T08:01:46;101224.16;;;26.46;46.53
4143;BME280;2085;51.052;6.958;2022-08-25T08:04:13;101214.22;;;26.55;46.48
4143;BME280;2085;51.052;6.958;2022-08-25T08:06:41;101220.59;;;26.62;46.13
4143;BME280;2085;51.052;6.958;2022-08-25T08:09:07;101220.94;;;26.67;45.92
4143;BME280;2085;51.052;6.958;2022-08-25T08:11:34;101213.88;;;26.74;45.91
4143;BME280;2085;51.052;6.958;2022-08-25T08:14:05;101213.88;;;26.82;45.99
4143;BME280;2085;51.052;6.958;2022-08-25T08:16:32;101206.47;;;26.92;45.99
4143;BME280;2085;51.052;6.958;2022-08-25T08:18:59;101205.59;;;27.00;45.62
4143;BME280;2085;51.052;6.958;2022-08-25T08:21:29;101207.44;;;27.07;45.75
4143;BME280;2085;51.052;6.958;2022-08-25T08:23:59;101200.50;;;27.13;45.67
4143;BME280;2085;51.052;6.958;2022-08-25T08:26:26;101198.16;;;27.18;46.01
4143;BME280;2085;51.052;6.958;2022-08-25T08:28:53;101198.13;;;27.26;45.90
4143;BME280;2085;51.052;6.958;2022-08-25T08:31:22;101196.59;;;27.32;45.61
4143;BME280;2085;51.052;6.958;2022-08-25T08:33:51;101196.72;;;27.38;45.91
4143;BME280;2085;51.052;6.958;2022-08-25T08:36:19;101186.06;;;27.45;45.86
4143;BME280;2085;51.052;6.958;2022-08-25T08:38:46;101191.63;;;27.51;45.43
4143;BME280;2085;51.052;6.958;2022-08-25T08:41:40;101179.28;;;27.57;45.74
4143;BME280;2085;51.052;6.958;2022-08-25T08:44:34;101182.63;;;27.67;45.73
4143;BME280;2085;51.052;6.958;2022-08-25T08:47:10;101175.31;;;27.76;45.25
4143;BME280;2085;51.052;6.958;2022-08-25T08:49:48;101178.81;;;27.84;45.40
4143;BME280;2085;51.052;6.958;2022-08-25T08:52:22;101173.34;;;27.92;45.50
4143;BME280;2085;51.052;6.958;2022-08-25T08:54:57;101175.19;;;28.00;45.14
4143;BME280;2085;51.052;6.958;2022-08-25T08:57:28;101170.72;;;28.07;45.43
4143;BME280;2085;51.052;6.958;2022-08-25T09:00:03;101176.31;;;28.14;44.88
4143;BME280;2085;51.052;6.958;2022-08-25T09:02:34;101170.28;;;28.26;45.05
4143;BME280;2085;51.052;6.958;2022-08-25T09:05:07;101160.25;;;28.35;44.90
4143;BME280;2085;51.052;6.958;2022-08-25T09:07:39;101160.34;;;28.42;44.77
4143;BME280;2085;51.052;6.958;2022-08-25T09:10:09;101164.88;;;28.49;44.77
4143;BME280;2085;51.052;6.958;2022-08-25T09:12:43;101154.81;;;28.58;45.00
4143;BME280;2085;51.052;6.958;2022-08-25T09:15:19;101150.16;;;28.66;44.67
4143;BME280;2085;51.052;6.958;2022-08-25T09:18:15;101149.56;;;28.79;44.64
4143;BME280;2085;51.052;6.958;2022-08-25T09:20:53;101148.44;;;28.88;44.47
4143;BME280;2085;51.052;6.958;2022-08-25T09:23:32;101148.19;;;28.98;44.69
4143;BME280;2085;51.052;6.958;2022-08-25T09:26:12;101139.78;;;29.07;44.31
4143;BME280;2085;51.052;6.958;2022-08-25T09:28:47;101140.91;;;29.13;44.40
4143;BME280;2085;51.052;6.958;2022-08-25T09:31:18;101139.13;;;29.20;44.23
4143;BME280;2085;51.052;6.958;2022-08-25T09:33:47;101133.59;;;29.28;44.08
4143;BME280;2085;51.052;6.958;2022-08-25T09:36:13;101140.16;;;29.34;44.24
4143;BME280;2085;51.052;6.958;2022-08-25T09:38:40;101141.28;;;29.39;44.31
4143;BME280;2085;51.052;6.958;2022-08-25T09:41:07;101136.59;;;29.48;44.33
4143;BME280;2085;51.052;6.958;2022-08-25T09:43:37;101136.03;;;29.52;44.32
4143;BME280;2085;51.052;6.958;2022-08-25T09:46:11;101127.78;;;29.60;43.77
4143;BME280;2085;51.052;6.958;2022-08-25T09:48:44;101124.31;;;29.66;43.89
4143;BME280;2085;51.052;6.958;2022-08-25T09:51:17;101119.41;;;29.77;43.86
4143;BME280;2085;51.052;6.958;2022-08-25T09:53:50;101118.56;;;29.91;44.03
4143;BME280;2085;51.052;6.958;2022-08-25T09:56:19;101113.03;;;29.99;43.85
4143;BME280;2085;51.052;6.958;2022-08-25T09:58:46;101115.97;;;30.04;43.72
4143;BME280;2085;51.052;6.958;2022-08-25T10:01:16;101112.03;;;30.06;43.76
4143;BME280;2085;51.052;6.958;2022-08-25T10:03:55;101116.22;;;30.09;43.54
4143;BME280;2085;51.052;6.958;2022-08-25T10:06:22;101117.28;;;30.08;43.71
4143;BME280;2085;51.052;6.958;2022-08-25T10:08:57;101115.38;;;30.08;43.74
4143;BME280;2085;51.052;6.958;2022-08-25T10:11:36;101113.16;;;30.12;43.77
4143;BME280;2085;51.052;6.958;2022-08-25T10:14:26;101115.06;;;30.18;43.60
4143;BME280;2085;51.052;6.958;2022-08-25T10:17:12;101110.56;;;30.25;43.48
4143;BME280;2085;51.052;6.958;2022-08-25T10:19:39;101118.97;;;30.30;43.36
4143;BME280;2085;51.052;6.958;2022-08-25T10:22:08;101107.69;;;30.33;43.41
4143;BME280;2085;51.052;6.958;2022-08-25T10:24:35;101101.41;;;30.33;43.51
4143;BME280;2085;51.052;6.958;2022-08-25T10:27:11;101093.72;;;30.36;43.57
4143;BME280;2085;51.052;6.958;2022-08-25T10:32:54;101087.63;;;30.55;43.19
4143;BME280;2085;51.052;6.958;2022-08-25T10:35:30;101084.13;;;30.62;43.19
4143;BME280;2085;51.052;6.958;2022-08-25T10:38:05;101078.31;;;30.71;43.12
4143;BME280;2085;51.052;6.958;2022-08-25T10:40:42;101084.66;;;30.78;42.81
4143;BME280;2085;51.052;6.958;2022-08-25T10:43:19;101076.75;;;30.83;42.77
4143;BME280;2085;51.052;6.958;2022-08-25T10:45:54;101081.59;;;30.88;42.88
4143;BME280;2085;51.052;6.958;2022-08-25T10:51:31;101070.97;;;30.93;42.95
4143;BME280;2085;51.052;6.958;2022-08-25T10:54:05;101067.19;;;30.94;42.81
4143;BME280;2085;51.052;6.958;2022-08-25T10:56:35;101068.47;;;30.98;42.81
4143;BME280;2085;51.052;6.958;2022-08-25T10:59:18;101059.75;;;31.03;42.71
4143;BME280;2085;51.052;6.958;2022-08-25T11:02:01;101060.19;;;31.06;42.59
4143;BME280;2085;51.052;6.958;2022-08-25T11:04:40;101050.56;;;31.10;42.47
4143;BME280;2085;51.052;6.958;2022-08-25T11:07:14;101049.34;;;31.19;42.47
4143;BME280;2085;51.052;6.958;2022-08-25T11:09:47;101049.59;;;31.31;42.48
4143;BME280;2085;51.052;6.958;2022-08-25T11:12:19;101037.72;;;31.38;42.21
4143;BME280;2085;51.052;6.958;2022-08-25T11:14:53;101037.72;;;31.38;42.03
4143;BME280;2085;51.052;6.958;2022-08-25T11:17:23;101045.66;;;31.40;42.31
4143;BME280;2085;51.052;6.958;2022-08-25T11:19:55;101041.47;;;31.44;42.03
4143;BME280;2085;51.052;6.958;2022-08-25T11:22:28;101040.03;;;31.48;42.16
4143;BME280;2085;51.052;6.958;2022-08-25T11:25:03;101042.13;;;31.53;42.08
4143;BME280;2085;51.052;6.958;2022-08-25T11:27:37;101036.09;;;31.57;42.06
4143;BME280;2085;51.052;6.958;2022-08-25T11:30:10;101031.91;;;31.61;42.05
4143;BME280;2085;51.052;6.958;2022-08-25T11:32:38;101024.41;;;31.63;42.01
4143;BME280;2085;51.052;6.958;2022-08-25T11:35:12;101035.31;;;31.70;41.94
4143;BME280;2085;51.052;6.958;2022-08-25T11:37:44;101029.88;;;31.70;41.85
4143;BME280;2085;51.052;6.958;2022-08-25T11:40:27;101024.22;;;31.65;41.71
4143;BME280;2085;51.052;6.958;2022-08-25T11:43:03;101023.13;;;31.66;41.71
4143;BME280;2085;51.052;6.958;2022-08-25T11:45:53;101023.16;;;31.72;41.84
4143;BME280;2085;51.052;6.958;2022-08-25T11:48:34;101013.53;;;31.76;42.04
4143;BME280;2085;51.052;6.958;2022-08-25T11:51:05;101019.41;;;31.80;41.42
4143;BME280;2085;51.052;6.958;2022-08-25T11:53:34;101022.34;;;31.85;41.56
4143;BME280;2085;51.052;6.958;2022-08-25T11:56:03;101011.84;;;31.88;41.46
4143;BME280;2085;51.052;6.958;2022-08-25T11:58:38;101007.25;;;31.89;41.44
4143;BME280;2085;51.052;6.958;2022-08-25T12:01:10;101012.31;;;31.92;41.45
4143;BME280;2085;51.052;6.958;2022-08-25T12:03:50;100998.69;;;31.92;41.47
4143;BME280;2085;51.052;6.958;2022-08-25T12:06:23;100996.81;;;31.93;41.34
4143;BME280;2085;51.052;6.958;2022-08-25T12:08:53;100992.19;;;32.00;41.48
4143;BME280;2085;51.052;6.958;2022-08-25T12:11:46;100995.13;;;32.11;41.36
4143;BME280;2085;51.052;6.958;2022-08-25T12:14:19;100990.13;;;32.15;41.17
4143;BME280;2085;51.052;6.958;2022-08-25T12:17:05;100986.94;;;32.24;41.04
4143;BME280;2085;51.052;6.958;2022-08-25T12:19:49;100979.63;;;32.31;40.88
4143;BME280;2085;51.052;6.958;2022-08-25T12:22:52;100984.84;;;32.40;40.74
4143;BME280;2085;51.052;6.958;2022-08-25T12:28:29;100974.53;;;32.48;40.82
4143;BME280;2085;51.052;6.958;2022-08-25T12:31:02;100978.75;;;32.51;40.61
4143;BME280;2085;51.052;6.958;2022-08-25T12:33:41;100967.84;;;32.51;40.59
4143;BME280;2085;51.052;6.958;2022-08-25T12:36:10;100969.69;;;32.57;40.50
4143;BME280;2085;51.052;6.958;2022-08-25T12:38:52;100966.97;;;32.57;40.57
4143;BME280;2085;51.052;6.958;2022-08-25T12:41:20;100969.28;;;32.60;40.46
4143;BME280;2085;51.052;6.958;2022-08-25T12:43:48;100975.34;;;32.62;40.35
4143;BME280;2085;51.052;6.958;2022-08-25T12:46:36;100964.69;;;32.67;40.47
4143;BME280;2085;51.052;6.958;2022-08-25T12:49:10;100963.59;;;32.74;40.22
4143;BME280;2085;51.052;6.958;2022-08-25T12:51:53;100963.19;;;32.78;40.13
4143;BME280;2085;51.052;6.958;2022-08-25T12:54:41;100965.25;;;32.82;40.07
4143;BME280;2085;51.052;6.958;2022-08-25T12:57:22;100963.59;;;32.81;40.08
4143;BME280;2085;51.052;6.958;2022-08-25T12:59:53;100964.81;;;32.85;39.83
4143;BME280;2085;51.052;6.958;2022-08-25T13:02:45;100961.44;;;32.90;39.81
4143;BME280;2085;51.052;6.958;2022-08-25T13:05:34;100954.06;;;32.97;39.94
4143;BME280;2085;51.052;6.958;2022-08-25T13:08:21;100955.09;;;33.02;39.69
4143;BME280;2085;51.052;6.958;2022-08-25T13:10:52;100953.38;;;33.08;39.71
4143;BME280;2085;51.052;6.958;2022-08-25T13:13:44;100940.97;;;33.12;39.38
4143;BME280;2085;51.052;6.958;2022-08-25T13:16:16;100945.19;;;33.14;39.31
4143;BME280;2085;51.052;6.958;2022-08-25T13:18:43;100936.16;;;33.14;39.24
4143;BME280;2085;51.052;6.958;2022-08-25T13:21:14;100942.88;;;33.11;39.09
4143;BME280;2085;51.052;6.958;2022-08-25T13:23:43;100930.91;;;33.12;39.31
4143;BME280;2085;51.052;6.958;2022-08-25T13:26:13;100929.84;;;33.13;39.23
4143;BME280;2085;51.052;6.958;2022-08-25T13:28:41;100921.03;;;33.11;39.29
4143;BME280;2085;51.052;6.958;2022-08-25T13:31:15;100917.25;;;33.12;39.32
4143;BME280;2085;51.052;6.958;2022-08-25T13:33:49;100916.84;;;33.15;39.08
4143;BME280;2085;51.052;6.958;2022-08-25T13:36:16;100919.78;;;33.14;39.19